createdAt,value
2022-10-17T00:00:12.710Z,3.27
2022-10-17T00:03:01.426Z,4.57
2022-10-17T00:05:51.477Z,3.37
2022-10-17T00:08:41.671Z,3.67
2022-10-17T00:11:30.392Z,3.20
2022-10-17T00:14:19.355Z,3.73
2022-10-17T00:17:08.105Z,3.47
2022-10-17T00:19:56.722Z,3.00
2022-10-17T00:22:46.884Z,3.10
2022-10-17T00:25:35.612Z,3.37
2022-10-17T00:28:24.246Z,3.80
2022-10-17T00:31:13.000Z,3.47
2022-10-17T00:34:01.568Z,2.77
2022-10-17T00:36:50.246Z,3.53
2022-10-17T00:39:40.527Z,4.87
2022-10-17T00:42:30.211Z,3.53
2022-10-17T00:45:23.578Z,3.87
2022-10-17T00:48:13.501Z,3.50
2022-10-17T00:51:02.132Z,2.50
2022-10-17T00:53:52.091Z,3.80
2022-10-17T00:56:42.358Z,3.60
2022-10-17T00:59:34.283Z,3.80
2022-10-17T01:02:23.733Z,4.37
2022-10-17T01:05:13.173Z,2.23
2022-10-17T01:08:02.404Z,2.80
2022-10-17T01:10:59.063Z,2.70
2022-10-17T01:13:54.863Z,2.27
2022-10-17T01:16:52.427Z,3.60
2022-10-17T01:20:07.635Z,2.63
2022-10-17T01:23:08.199Z,3.57
2022-10-17T01:26:04.627Z,3.10
2022-10-17T01:29:40.418Z,2.93
2022-10-17T01:32:37.047Z,3.37
2022-10-17T01:35:30.403Z,2.80
2022-10-17T01:38:23.179Z,3.33
2022-10-17T01:41:19.835Z,4.10
2022-10-17T01:44:13.572Z,2.87
2022-10-17T01:47:05.800Z,2.50
2022-10-17T01:50:01.424Z,2.70
2022-10-17T01:52:54.088Z,2.73
2022-10-17T01:55:45.720Z,2.77
2022-10-17T01:58:38.203Z,2.90
2022-10-17T02:01:30.879Z,3.10
2022-10-17T02:04:20.273Z,2.57
2022-10-17T02:07:11.147Z,2.70
2022-10-17T02:09:59.753Z,3.50
2022-10-17T02:12:55.787Z,3.93
2022-10-17T02:15:57.638Z,3.23
2022-10-17T02:19:08.453Z,2.93
2022-10-17T02:22:08.533Z,3.13
2022-10-17T02:25:04.215Z,2.47
2022-10-17T02:27:57.872Z,3.00
2022-10-17T02:30:51.327Z,3.27
2022-10-17T02:33:45.452Z,3.10
2022-10-17T02:36:40.458Z,2.93
2022-10-17T02:39:30.818Z,2.50
2022-10-17T02:42:24.839Z,2.97
2022-10-17T02:45:14.260Z,2.27
2022-10-17T02:48:07.288Z,2.63
2022-10-17T02:51:05.512Z,2.30
2022-10-17T02:54:02.878Z,1.93
2022-10-17T02:56:54.663Z,2.47
2022-10-17T02:59:47.002Z,2.70
2022-10-17T03:02:41.395Z,2.17
2022-10-17T03:05:31.103Z,2.90
2022-10-17T03:08:19.855Z,3.10
2022-10-17T03:11:08.691Z,2.70
2022-10-17T03:13:57.277Z,2.77
2022-10-17T03:16:47.434Z,2.23
2022-10-17T03:19:36.005Z,3.27
2022-10-17T03:22:24.755Z,2.77
2022-10-17T03:25:13.412Z,2.17
2022-10-17T03:28:02.623Z,2.40
2022-10-17T03:30:51.219Z,3.07
2022-10-17T03:33:41.503Z,3.13
2022-10-17T03:36:30.225Z,2.50
2022-10-17T03:39:18.910Z,1.57
2022-10-17T03:42:07.539Z,2.67
2022-10-17T03:44:56.224Z,2.63
2022-10-17T03:47:44.823Z,2.03
2022-10-17T03:50:34.879Z,4.23
2022-10-17T03:53:23.423Z,2.80
2022-10-17T03:56:14.924Z,2.93
2022-10-17T03:59:03.588Z,3.23
2022-10-17T04:01:52.184Z,2.97
2022-10-17T04:04:40.804Z,2.60
2022-10-17T04:07:30.903Z,3.13
2022-10-17T04:10:19.568Z,2.50
2022-10-17T04:13:08.183Z,2.67
2022-10-17T04:15:57.819Z,2.83
2022-10-17T04:18:46.538Z,2.67
2022-10-17T04:21:35.174Z,3.07
2022-10-17T04:24:25.968Z,2.63
2022-10-17T04:27:14.652Z,2.10
2022-10-17T04:30:03.274Z,1.70
2022-10-17T04:32:51.833Z,2.00
2022-10-17T04:35:40.529Z,2.57
2022-10-17T04:38:30.040Z,3.63
2022-10-17T04:41:20.813Z,2.40
2022-10-17T04:44:09.458Z,2.33
2022-10-17T04:46:58.113Z,2.73
2022-10-17T04:49:46.739Z,1.33
2022-10-17T04:52:37.696Z,2.67
2022-10-17T04:55:26.299Z,2.00
2022-10-17T04:58:16.893Z,2.73
2022-10-17T05:01:09.409Z,1.73
2022-10-17T05:03:58.135Z,1.17
2022-10-17T05:06:46.742Z,2.20
2022-10-17T05:09:35.339Z,2.50
2022-10-17T05:12:23.885Z,2.60
2022-10-17T05:15:14.117Z,2.10
2022-10-17T05:18:02.738Z,1.67
2022-10-17T05:20:51.340Z,1.70
2022-10-17T05:23:39.932Z,2.60
2022-10-17T05:26:28.753Z,2.13
2022-10-17T05:29:17.562Z,2.23
2022-10-17T05:32:07.634Z,1.83
2022-10-17T05:34:56.218Z,2.20
2022-10-17T05:37:44.849Z,1.80
2022-10-17T05:40:33.479Z,1.43
2022-10-17T05:43:22.058Z,2.10
2022-10-17T05:46:11.233Z,2.03
2022-10-17T05:49:01.303Z,1.87
2022-10-17T05:51:49.948Z,3.20
2022-10-17T05:54:38.592Z,2.10
2022-10-17T05:57:27.225Z,3.17
2022-10-17T06:00:16.158Z,2.60
2022-10-17T06:03:04.934Z,2.97
2022-10-17T06:05:54.995Z,3.77
2022-10-17T06:08:44.470Z,4.00
2022-10-17T06:11:33.483Z,3.37
2022-10-17T06:14:22.492Z,2.80
2022-10-17T06:17:15.740Z,3.67
2022-10-17T06:20:05.343Z,3.70
2022-10-17T06:22:55.440Z,3.47
2022-10-17T06:25:44.065Z,3.20
2022-10-17T06:28:33.067Z,2.90
2022-10-17T06:31:21.692Z,2.70
2022-10-17T06:35:14.740Z,1.87
2022-10-17T06:38:04.524Z,4.07
2022-10-17T06:40:54.210Z,3.03
2022-10-17T06:43:46.408Z,3.30
2022-10-17T06:46:35.057Z,3.77
2022-10-17T06:49:24.007Z,2.80
2022-10-17T06:52:14.897Z,3.13
2022-10-17T06:57:57.573Z,4.70
2022-10-17T07:00:46.308Z,3.03
2022-10-17T07:03:35.052Z,4.13
2022-10-17T07:06:24.866Z,3.53
2022-10-17T07:09:14.886Z,3.77
2022-10-17T07:12:06.965Z,3.50
2022-10-17T07:14:55.564Z,3.50
2022-10-17T07:17:44.349Z,4.40
2022-10-17T07:20:33.071Z,3.90
2022-10-17T07:23:21.754Z,3.90
2022-10-17T07:26:13.342Z,3.73
2022-10-17T07:29:02.066Z,3.60
2022-10-17T07:31:52.184Z,4.07
2022-10-17T07:34:40.764Z,2.87
2022-10-17T07:37:30.605Z,4.93
2022-10-17T07:40:19.500Z,4.00
2022-10-17T07:43:09.580Z,3.57
2022-10-17T07:45:58.154Z,3.77
2022-10-17T07:48:46.794Z,4.40
2022-10-17T07:51:35.618Z,3.77
2022-10-17T07:54:24.349Z,4.17
2022-10-17T07:57:13.026Z,3.90
2022-10-17T08:00:03.089Z,4.40
2022-10-17T08:02:51.782Z,4.43
2022-10-17T08:05:40.340Z,4.70
2022-10-17T08:08:29.634Z,5.47
2022-10-17T08:11:18.264Z,4.30
2022-10-17T08:14:06.964Z,4.27
2022-10-17T08:16:57.405Z,4.07
2022-10-17T08:19:46.062Z,4.30
2022-10-17T08:22:35.159Z,3.47
2022-10-17T08:25:25.158Z,3.53
2022-10-17T08:28:13.799Z,4.53
2022-10-17T08:31:07.212Z,4.63
2022-10-17T08:33:57.623Z,3.58
2022-10-17T08:36:46.283Z,4.78
2022-10-17T08:39:34.845Z,3.90
2022-10-17T08:42:36.098Z,5.20
2022-10-17T08:45:31.744Z,4.55
2022-10-17T08:48:24.789Z,4.05
2022-10-17T08:51:19.013Z,4.28
2022-10-17T08:54:14.671Z,4.30
2022-10-17T08:57:03.363Z,4.70
2022-10-17T08:59:53.954Z,4.95
2022-10-17T09:02:56.705Z,3.60
2022-10-17T09:05:51.824Z,4.93
2022-10-17T09:08:51.448Z,4.25
2022-10-17T09:11:50.093Z,4.55
2022-10-17T09:15:05.909Z,4.00
2022-10-17T09:17:58.494Z,3.85
2022-10-17T09:20:52.842Z,3.90
2022-10-17T09:23:48.064Z,3.90
2022-10-17T09:26:36.770Z,4.28
2022-10-17T09:29:31.015Z,4.57
2022-10-17T09:32:26.885Z,4.22
2022-10-17T09:35:16.728Z,4.38
2022-10-17T09:38:05.768Z,4.47
2022-10-17T09:40:58.601Z,3.63
2022-10-17T09:43:47.999Z,4.43
2022-10-17T09:46:39.465Z,4.18
2022-10-17T09:49:33.800Z,3.38
2022-10-17T09:52:27.267Z,4.53
2022-10-17T09:55:21.638Z,3.97
2022-10-17T09:58:12.794Z,4.93
2022-10-17T10:01:21.067Z,3.63
2022-10-17T10:04:14.024Z,3.17
2022-10-17T10:07:05.235Z,3.38
2022-10-17T10:09:54.768Z,3.50
2022-10-17T10:12:44.645Z,3.90
2022-10-17T10:15:38.874Z,3.72
2022-10-17T10:18:34.048Z,3.53
2022-10-17T10:21:24.557Z,3.20
2022-10-17T10:24:14.878Z,3.55
2022-10-17T10:27:05.395Z,3.45
2022-10-17T10:29:54.819Z,2.55
2022-10-17T10:32:48.203Z,3.92
2022-10-17T10:35:38.448Z,3.08
2022-10-17T10:38:27.582Z,3.38
2022-10-17T10:41:16.229Z,3.55
2022-10-17T10:44:06.611Z,3.97
2022-10-17T10:47:16.073Z,3.08
2022-10-17T10:50:26.788Z,3.15
2022-10-17T10:53:31.690Z,3.38
2022-10-17T10:56:27.394Z,4.53
2022-10-17T10:59:26.698Z,3.40
2022-10-17T11:02:21.628Z,3.38
2022-10-17T11:05:19.294Z,3.80
2022-10-17T11:08:21.908Z,3.22
2022-10-17T11:11:19.735Z,4.47
2022-10-17T11:14:14.678Z,3.20
2022-10-17T11:17:13.506Z,4.05
2022-10-17T11:20:12.739Z,3.63
2022-10-17T11:23:19.921Z,4.63
2022-10-17T11:26:15.293Z,3.50
2022-10-17T11:29:06.724Z,4.30
2022-10-17T11:31:58.153Z,2.70
2022-10-17T11:34:49.546Z,4.05
2022-10-17T11:37:46.015Z,3.45
2022-10-17T11:40:41.656Z,3.47
2022-10-17T11:43:35.082Z,3.20
2022-10-17T11:46:25.493Z,4.25
2022-10-17T11:49:20.393Z,3.92
2022-10-17T11:52:51.293Z,4.53
2022-10-17T11:55:34.605Z,2.97
2022-10-17T11:58:32.948Z,3.58
2022-10-17T12:01:32.356Z,4.35
2022-10-17T12:04:35.821Z,3.65
2022-10-17T12:07:32.145Z,3.67
2022-10-17T12:10:33.016Z,4.28
2022-10-17T12:13:53.792Z,3.95
2022-10-17T12:16:48.686Z,3.78
2022-10-17T12:19:38.767Z,3.80
2022-10-17T12:22:27.949Z,4.30
2022-10-17T12:25:21.077Z,4.07
2022-10-17T12:28:15.442Z,3.40
2022-10-17T12:31:12.693Z,3.78
2022-10-17T12:34:02.895Z,3.45
2022-10-17T12:36:51.549Z,3.28
2022-10-17T12:39:46.985Z,3.67
2022-10-17T12:42:51.496Z,4.38
2022-10-17T12:45:52.228Z,4.57
2022-10-17T12:49:06.537Z,3.95
2022-10-17T12:52:29.903Z,4.28
2022-10-17T12:55:19.855Z,3.92
2022-10-17T12:58:16.179Z,4.10
2022-10-17T13:01:23.588Z,4.00
2022-10-17T13:04:15.084Z,3.97
2022-10-17T13:07:03.810Z,3.85
2022-10-17T13:09:53.296Z,4.20
2022-10-17T13:12:42.059Z,3.55
2022-10-17T13:15:30.879Z,4.35
2022-10-17T13:18:24.303Z,3.85
2022-10-17T13:21:18.488Z,3.97
2022-10-17T13:24:22.233Z,4.18
2022-10-17T13:27:25.336Z,4.10
2022-10-17T13:30:29.461Z,4.60
2022-10-17T13:33:33.794Z,4.88
2022-10-17T13:36:23.867Z,3.70
2022-10-17T13:39:19.678Z,4.75
2022-10-17T13:42:22.969Z,5.30
2022-10-17T13:45:20.409Z,4.95
2022-10-17T13:48:21.313Z,4.10
2022-10-17T13:51:11.159Z,4.85
2022-10-17T13:54:01.583Z,4.43
2022-10-17T13:56:57.283Z,5.15
2022-10-17T13:59:49.233Z,5.80
2022-10-17T14:02:38.287Z,6.03
2022-10-17T14:05:28.197Z,5.97
2022-10-17T14:08:23.188Z,6.40
2022-10-17T14:11:23.791Z,5.63
2022-10-17T14:14:21.894Z,5.75
2022-10-17T14:17:23.058Z,5.35
2022-10-17T14:20:57.572Z,4.68
2022-10-17T14:23:32.389Z,5.70
2022-10-17T14:26:24.132Z,5.80
2022-10-17T14:29:24.595Z,5.90
2022-10-17T14:32:16.377Z,5.40
2022-10-17T14:35:30.213Z,5.82
2022-10-17T14:38:17.617Z,5.30
2022-10-17T14:41:40.922Z,6.45
2022-10-17T14:44:27.223Z,5.65
2022-10-17T14:47:42.110Z,5.65
2022-10-17T14:50:32.041Z,5.72
2022-10-17T14:53:22.703Z,5.88
2022-10-17T14:56:25.285Z,5.23
2022-10-17T15:02:29.194Z,5.25
2022-10-17T15:05:18.519Z,6.75
2022-10-17T15:08:07.843Z,5.88
2022-10-17T15:10:56.505Z,5.07
2022-10-17T15:13:45.814Z,4.85
2022-10-17T15:16:35.948Z,5.30
2022-10-17T15:19:26.025Z,5.38
2022-10-17T15:22:14.909Z,5.45
2022-10-17T15:25:03.552Z,5.25
2022-10-17T15:27:52.626Z,5.43
2022-10-17T15:30:41.493Z,5.07
2022-10-17T15:33:30.039Z,5.45
2022-10-17T15:36:26.209Z,5.32
2022-10-17T15:39:14.953Z,4.95
2022-10-17T15:42:03.532Z,5.63
2022-10-17T15:44:52.168Z,4.50
2022-10-17T15:47:42.025Z,4.68
2022-10-17T15:50:30.829Z,5.60
2022-10-17T15:53:20.854Z,6.35
2022-10-17T15:56:16.163Z,4.55
2022-10-17T15:59:05.959Z,4.38
2022-10-17T16:01:54.849Z,5.82
2022-10-17T16:04:43.893Z,4.78
2022-10-17T16:07:32.770Z,4.95
2022-10-17T16:10:24.153Z,5.53
2022-10-17T16:13:17.808Z,5.22
2022-10-17T16:16:06.923Z,5.45
2022-10-17T16:18:55.804Z,4.50
2022-10-17T16:21:44.448Z,4.88
2022-10-17T16:24:33.088Z,5.45
2022-10-17T16:27:23.192Z,5.68
2022-10-17T16:30:11.935Z,5.25
2022-10-17T16:33:00.833Z,5.90
2022-10-17T16:35:49.965Z,5.70
2022-10-17T16:38:38.708Z,7.18
2022-10-17T16:41:29.865Z,8.00
2022-10-17T16:44:20.045Z,6.75
2022-10-17T16:47:09.956Z,5.65
2022-10-17T16:49:58.707Z,6.20
2022-10-17T16:52:47.307Z,5.90
2022-10-17T16:55:35.914Z,6.40
2022-10-17T16:58:27.536Z,6.15
2022-10-17T17:01:19.299Z,5.38
2022-10-17T17:04:09.301Z,6.00
2022-10-17T17:06:58.713Z,6.25
2022-10-17T17:09:48.015Z,6.70
2022-10-17T17:12:37.843Z,5.82
2022-10-17T17:15:27.530Z,6.13
2022-10-17T17:18:18.004Z,5.80
2022-10-17T17:21:08.691Z,5.28
2022-10-17T17:23:59.283Z,5.43
2022-10-17T17:26:52.071Z,6.93
2022-10-17T17:29:42.336Z,5.20
2022-10-17T17:32:31.954Z,6.85
2022-10-17T17:35:22.503Z,6.68
2022-10-17T17:38:12.163Z,6.47
2022-10-17T17:41:02.406Z,6.30
2022-10-17T17:43:52.713Z,7.53
2022-10-17T17:46:44.018Z,7.22
2022-10-17T17:49:33.793Z,6.55
2022-10-17T17:52:25.538Z,6.32
2022-10-17T17:55:15.120Z,5.75
2022-10-17T17:58:08.024Z,4.32
2022-10-17T18:00:57.364Z,5.93
2022-10-17T18:03:48.475Z,5.28
2022-10-17T18:06:38.748Z,5.90
2022-10-17T18:09:31.781Z,7.03
2022-10-17T18:12:20.969Z,6.28
2022-10-17T18:15:11.939Z,5.78
2022-10-17T18:18:02.758Z,6.68
2022-10-17T18:20:52.801Z,6.30
2022-10-17T18:23:43.009Z,6.47
2022-10-17T18:26:35.343Z,4.88
2022-10-17T18:29:27.597Z,5.82
2022-10-17T18:32:17.746Z,5.05
2022-10-17T18:35:08.258Z,5.35
2022-10-17T18:37:57.845Z,4.43
2022-10-17T18:40:50.683Z,5.35
2022-10-17T18:43:44.354Z,4.93
2022-10-17T18:46:36.951Z,5.65
2022-10-17T18:49:26.710Z,5.65
2022-10-17T18:52:16.853Z,5.43
2022-10-17T18:55:07.206Z,5.93
2022-10-17T18:57:57.193Z,5.63
2022-10-17T19:00:52.303Z,6.95
2022-10-17T19:03:42.454Z,5.93
2022-10-17T19:06:33.435Z,5.63
2022-10-17T19:09:22.068Z,4.38
2022-10-17T19:12:11.123Z,5.20
2022-10-17T19:14:59.979Z,7.30
2022-10-17T19:17:51.953Z,5.88
2022-10-17T19:20:42.427Z,6.25
2022-10-17T19:23:31.698Z,6.35
2022-10-17T19:26:22.819Z,5.00
2022-10-17T19:29:15.159Z,5.85
2022-10-17T19:32:06.889Z,5.23
2022-10-17T19:34:58.887Z,6.40
2022-10-17T19:37:48.271Z,5.30
2022-10-17T19:40:42.435Z,5.22
2022-10-17T19:43:31.217Z,5.20
2022-10-17T19:46:21.624Z,6.72
2022-10-17T19:49:11.659Z,5.85
2022-10-17T19:52:02.609Z,5.95
2022-10-17T19:54:51.714Z,5.50
2022-10-17T19:57:41.178Z,6.13
2022-10-17T20:00:30.729Z,5.07
2022-10-17T20:03:21.034Z,4.57
2022-10-17T20:06:10.643Z,6.43
2022-10-17T20:09:01.013Z,5.20
2022-10-17T20:11:51.588Z,5.90
2022-10-17T20:14:42.750Z,4.77
2022-10-17T20:17:31.667Z,5.13
2022-10-17T20:20:20.738Z,4.70
2022-10-17T20:23:09.981Z,5.05
2022-10-17T20:26:08.750Z,5.03
2022-10-17T20:29:11.373Z,4.27
2022-10-17T20:32:00.324Z,5.50
2022-10-17T20:34:49.374Z,5.73
2022-10-17T20:37:41.703Z,4.53
2022-10-17T20:40:35.542Z,4.97
2022-10-17T20:43:25.995Z,5.50
2022-10-17T20:46:35.201Z,5.13
2022-10-17T20:49:24.849Z,5.50
2022-10-17T20:52:13.839Z,5.23
2022-10-17T20:55:02.457Z,5.23
2022-10-17T20:57:54.199Z,4.70
2022-10-17T21:00:44.714Z,5.00
2022-10-17T21:03:37.897Z,5.07
2022-10-17T21:06:28.773Z,5.57
2022-10-17T21:09:17.400Z,5.20
2022-10-17T21:12:06.168Z,4.20
2022-10-17T21:14:54.742Z,5.60
2022-10-17T21:17:44.816Z,5.13
2022-10-17T21:20:33.443Z,4.90
2022-10-17T21:23:22.074Z,6.53
2022-10-17T21:26:12.723Z,4.27
2022-10-17T21:29:05.674Z,6.20
2022-10-17T21:31:54.322Z,5.30
2022-10-17T21:34:44.390Z,5.20
2022-10-17T21:37:32.998Z,5.20
2022-10-17T21:40:21.762Z,4.90
2022-10-17T21:43:10.383Z,4.30
2022-10-17T21:46:03.173Z,4.77
2022-10-17T21:48:52.385Z,5.33
2022-10-17T21:51:43.169Z,4.80
2022-10-17T21:54:31.819Z,4.07
2022-10-17T21:57:20.435Z,5.47
2022-10-17T22:00:10.613Z,4.33
2022-10-17T22:03:00.179Z,4.93
2022-10-17T22:05:48.775Z,4.30
2022-10-17T22:08:39.728Z,4.07
2022-10-17T22:11:30.417Z,4.10
2022-10-17T22:14:20.741Z,4.53
2022-10-17T22:17:09.316Z,4.47
2022-10-17T22:19:57.916Z,4.33
2022-10-17T22:22:46.537Z,4.77
2022-10-17T22:25:36.613Z,4.43
2022-10-17T22:28:25.937Z,4.13
2022-10-17T22:31:14.791Z,4.27
2022-10-17T22:34:05.129Z,3.93
2022-10-17T22:36:54.284Z,4.00
2022-10-17T22:39:42.865Z,4.00
2022-10-17T22:42:34.690Z,4.37
2022-10-17T22:45:23.364Z,4.57
2022-10-17T22:48:12.027Z,4.57
2022-10-17T22:51:01.824Z,4.60
2022-10-17T22:53:50.389Z,4.27
2022-10-17T22:56:39.121Z,4.57
2022-10-17T22:59:29.183Z,5.63
2022-10-17T23:02:17.837Z,3.60
2022-10-17T23:16:21.873Z,3.30
2022-10-17T23:24:47.135Z,3.70
2022-10-17T23:27:36.043Z,3.53
2022-10-17T23:30:24.690Z,4.17
2022-10-17T23:33:15.320Z,3.17
2022-10-17T23:36:05.731Z,3.35
2022-10-17T23:38:57.801Z,3.57
2022-10-17T23:41:47.293Z,3.97
2022-10-17T23:44:35.944Z,3.57
2022-10-17T23:47:24.600Z,3.17
2022-10-17T23:50:14.756Z,2.90
2022-10-17T23:53:03.354Z,3.93
2022-10-17T23:55:52.262Z,3.60
2022-10-17T23:58:41.395Z,3.50
